createdAt,value
2018-11-02T00:00:11.677Z,4.10
2018-11-02T00:01:11.768Z,4.70
2018-11-02T00:02:11.572Z,4.70
2018-11-02T00:03:11.685Z,4.70
2018-11-02T00:04:11.687Z,4.90
2018-11-02T00:05:11.619Z,3.70
2018-11-02T00:06:11.681Z,5.00
2018-11-02T00:07:11.599Z,4.50
2018-11-02T00:08:11.614Z,3.40
2018-11-02T00:09:11.649Z,5.70
2018-11-02T00:10:11.643Z,6.70
2018-11-02T00:11:11.529Z,4.10
2018-11-02T00:12:11.579Z,3.50
2018-11-02T00:13:11.642Z,5.90
2018-11-02T00:14:11.554Z,4.20
2018-11-02T00:15:11.563Z,3.00
2018-11-02T00:16:11.574Z,5.30
2018-11-02T00:17:12.390Z,6.70
2018-11-02T00:18:11.777Z,2.70
2018-11-02T00:19:11.468Z,4.50
2018-11-02T00:20:11.699Z,5.20
2018-11-02T00:21:11.389Z,4.80
2018-11-02T00:22:11.421Z,3.10
2018-11-02T00:23:11.808Z,4.00
2018-11-02T00:24:11.432Z,8.40
2018-11-02T00:25:11.417Z,6.40
2018-11-02T00:26:13.119Z,5.00
2018-11-02T00:27:18.180Z,3.60
2018-11-02T00:28:11.732Z,2.70
2018-11-02T00:29:11.343Z,5.20
2018-11-02T00:30:12.480Z,3.00
2018-11-02T00:31:28.856Z,3.90
2018-11-02T00:32:13.644Z,4.70
2018-11-02T00:33:12.653Z,4.20
2018-11-02T00:35:56.871Z,4.30
2018-11-02T00:36:55.180Z,4.20
2018-11-02T00:37:56.820Z,6.60
2018-11-02T00:38:55.140Z,5.40
2018-11-02T00:39:55.150Z,3.70
2018-11-02T00:40:56.426Z,2.60
2018-11-02T00:41:55.039Z,2.20
2018-11-02T00:42:55.149Z,2.90
2018-11-02T00:43:55.126Z,2.20
2018-11-02T00:44:55.163Z,2.80
2018-11-02T00:45:55.059Z,1.90
2018-11-02T00:46:54.980Z,2.30
2018-11-02T00:47:55.176Z,3.80
2018-11-02T00:48:55.796Z,2.80
2018-11-02T00:49:54.982Z,3.00
2018-11-02T00:50:54.980Z,1.80
2018-11-02T00:51:54.899Z,1.90
2018-11-02T00:52:55.002Z,2.00
2018-11-02T00:53:54.919Z,3.40
2018-11-02T00:54:54.914Z,2.20
2018-11-02T00:55:54.914Z,2.50
2018-11-02T00:56:54.951Z,2.80
2018-11-02T00:57:55.058Z,2.00
2018-11-02T00:58:54.828Z,1.70
2018-11-02T00:59:54.840Z,2.40
2018-11-02T01:00:54.967Z,4.50
2018-11-02T01:01:54.865Z,2.10
2018-11-02T01:02:54.958Z,3.40
2018-11-02T01:03:54.763Z,6.80
2018-11-02T01:04:54.775Z,2.70
2018-11-02T01:05:54.944Z,3.20
2018-11-02T01:06:54.781Z,4.80
2018-11-02T01:07:55.014Z,4.60
2018-11-02T01:08:54.896Z,3.50
2018-11-02T01:09:54.694Z,1.30
2018-11-02T01:10:54.800Z,2.60
2018-11-02T01:11:56.495Z,2.00
2018-11-02T01:12:54.725Z,1.60
2018-11-02T01:13:54.825Z,2.40
2018-11-02T01:14:54.729Z,1.90
2018-11-02T01:15:54.636Z,1.60
2018-11-02T01:16:54.645Z,1.10
2018-11-02T01:17:54.710Z,1.60
2018-11-02T01:18:54.911Z,1.70
2018-11-02T01:19:54.659Z,1.60
2018-11-02T01:20:54.666Z,1.90
2018-11-02T01:21:54.669Z,1.80
2018-11-02T01:22:54.591Z,1.70
2018-11-02T01:23:54.727Z,2.20
2018-11-02T01:24:54.688Z,1.40
2018-11-02T01:25:54.600Z,2.80
2018-11-02T01:26:54.605Z,2.20
2018-11-02T01:27:54.528Z,2.10
2018-11-02T01:28:54.613Z,1.30
2018-11-02T01:29:54.517Z,1.60
2018-11-02T01:30:54.522Z,1.30
2018-11-02T01:31:54.632Z,1.40
2018-11-02T01:32:54.548Z,2.80
2018-11-02T01:33:54.543Z,1.40
2018-11-02T01:34:54.449Z,3.30
2018-11-02T01:35:54.458Z,1.90
2018-11-02T01:36:54.465Z,2.00
2018-11-02T01:37:54.571Z,1.50
2018-11-02T01:38:54.584Z,3.80
2018-11-02T01:39:54.424Z,2.10
2018-11-02T01:40:54.486Z,1.70
2018-11-02T01:41:54.435Z,1.80
2018-11-02T01:42:54.422Z,1.70
2018-11-02T01:43:54.507Z,2.10
2018-11-02T01:44:54.445Z,1.90
2018-11-02T01:45:54.322Z,2.50
2018-11-02T01:46:54.340Z,2.30
2018-11-02T01:47:54.328Z,1.40
2018-11-02T01:48:54.439Z,2.20
2018-11-02T01:49:54.368Z,1.70
2018-11-02T01:50:54.361Z,1.60
2018-11-02T01:51:54.256Z,2.10
2018-11-02T01:52:54.255Z,2.20
2018-11-02T01:53:54.462Z,2.60
2018-11-02T01:54:54.270Z,2.00
2018-11-02T01:55:54.265Z,1.80
2018-11-02T01:56:54.300Z,1.70
2018-11-02T01:57:54.282Z,3.50
2018-11-02T01:58:54.286Z,2.00
2018-11-02T01:59:54.225Z,2.00
2018-11-02T02:00:54.208Z,2.20
2018-11-02T02:01:54.212Z,2.10
2018-11-02T02:02:54.212Z,1.90
2018-11-02T02:03:54.239Z,2.00
2018-11-02T02:04:54.137Z,1.70
2018-11-02T02:05:54.137Z,1.60
2018-11-02T02:06:54.134Z,2.50
2018-11-02T02:07:54.141Z,2.10
2018-11-02T02:08:54.263Z,2.00
2018-11-02T02:09:54.050Z,1.70
2018-11-02T02:10:54.086Z,3.50
2018-11-02T02:11:54.094Z,1.30
2018-11-02T02:12:54.092Z,5.80
2018-11-02T02:13:54.183Z,2.10
2018-11-02T02:14:54.106Z,3.30
2018-11-02T02:15:53.997Z,3.40
2018-11-02T02:16:53.994Z,4.60
2018-11-02T02:17:54.000Z,3.50
2018-11-02T02:18:54.118Z,6.00
2018-11-02T02:19:54.035Z,1.60
2018-11-02T02:20:54.039Z,4.20
2018-11-02T02:21:53.926Z,3.40
2018-11-02T02:22:53.947Z,2.20
2018-11-02T02:23:54.053Z,2.50
2018-11-02T02:24:53.942Z,2.30
2018-11-02T02:25:53.948Z,1.20
2018-11-02T02:26:53.981Z,3.10
2018-11-02T02:27:53.860Z,3.30
2018-11-02T02:28:53.973Z,1.90
2018-11-02T02:29:53.876Z,1.90
2018-11-02T02:30:53.879Z,1.10
2018-11-02T02:31:53.913Z,1.20
2018-11-02T02:32:53.898Z,3.00
2018-11-02T02:33:53.925Z,1.60
2018-11-02T02:34:53.851Z,1.60
2018-11-02T02:35:53.809Z,2.00
2018-11-02T02:36:53.827Z,2.30
2018-11-02T02:37:53.841Z,1.10
2018-11-02T02:38:53.860Z,1.50
2018-11-02T02:39:53.841Z,1.10
2018-11-02T02:40:53.749Z,1.60
2018-11-02T02:41:53.754Z,1.60
2018-11-02T02:42:53.754Z,2.70
2018-11-02T02:43:53.765Z,1.00
2018-11-02T02:44:53.875Z,0.90
2018-11-02T02:45:53.685Z,1.30
2018-11-02T02:46:53.706Z,1.70
2018-11-02T02:47:53.701Z,1.60
2018-11-02T02:48:53.731Z,4.10
2018-11-02T02:49:53.797Z,3.00
2018-11-02T02:50:53.719Z,2.00
2018-11-02T02:51:53.756Z,1.30
2018-11-02T02:52:53.615Z,1.60
2018-11-02T02:53:53.624Z,1.10
2018-11-02T02:54:53.732Z,1.20
2018-11-02T02:55:53.632Z,2.90
2018-11-02T02:56:53.652Z,1.50
2018-11-02T02:57:53.553Z,1.30
2018-11-02T02:58:53.577Z,0.80
2018-11-02T02:59:53.700Z,3.40
2018-11-02T03:00:53.564Z,3.30
2018-11-02T03:01:53.587Z,1.10
2018-11-02T03:02:53.579Z,2.10
2018-11-02T03:03:53.480Z,1.30
2018-11-02T03:04:53.597Z,1.30
2018-11-02T03:05:53.488Z,1.90
2018-11-02T03:06:53.491Z,1.90
2018-11-02T03:07:53.525Z,5.90
2018-11-02T03:08:53.539Z,2.30
2018-11-02T03:09:53.517Z,3.80
2018-11-02T03:10:53.681Z,3.90
2018-11-02T03:11:53.423Z,2.10
2018-11-02T03:12:53.427Z,1.40
2018-11-02T03:13:53.454Z,1.70
2018-11-02T03:14:53.545Z,3.20
2018-11-02T03:15:53.353Z,2.10
2018-11-02T03:16:53.356Z,4.30
2018-11-02T03:17:53.359Z,1.70
2018-11-02T03:18:53.361Z,2.50
2018-11-02T03:19:53.510Z,5.20
2018-11-02T03:20:53.377Z,5.00
2018-11-02T03:21:53.283Z,3.60
2018-11-02T03:22:53.278Z,2.50
2018-11-02T03:23:53.309Z,2.70
2018-11-02T03:24:53.407Z,2.60
2018-11-02T03:25:53.308Z,2.60
2018-11-02T03:26:53.342Z,5.40
2018-11-02T03:27:53.234Z,3.00
2018-11-02T03:28:53.230Z,3.40
2018-11-02T03:29:53.333Z,2.60
2018-11-02T03:30:53.251Z,3.90
2018-11-02T03:31:53.241Z,2.00
2018-11-02T03:32:53.335Z,2.10
2018-11-02T03:33:53.149Z,2.90
2018-11-02T03:34:53.264Z,2.70
2018-11-02T03:35:53.161Z,2.30
2018-11-02T03:36:53.183Z,3.10
2018-11-02T03:37:53.169Z,3.90
2018-11-02T03:38:53.189Z,6.50
2018-11-02T03:39:53.196Z,3.70
2018-11-02T03:40:53.124Z,2.90
2018-11-02T03:41:53.104Z,5.00
2018-11-02T03:42:53.108Z,3.50
2018-11-02T03:43:53.219Z,4.50
2018-11-02T03:44:53.246Z,3.70
2018-11-02T03:45:53.024Z,6.40
2018-11-02T03:46:53.031Z,5.40
2018-11-02T03:47:53.052Z,2.50
2018-11-02T03:48:53.046Z,3.10
2018-11-02T03:49:53.144Z,2.90
2018-11-02T03:50:53.120Z,4.40
2018-11-02T03:51:53.058Z,4.00
2018-11-02T03:52:52.971Z,4.40
2018-11-02T03:53:52.970Z,3.60
2018-11-02T03:54:53.091Z,3.30
2018-11-02T03:55:53.377Z,2.70
2018-11-02T03:56:53.066Z,5.00
2018-11-02T03:57:53.053Z,4.60
2018-11-02T03:58:52.910Z,1.90
2018-11-02T03:59:53.712Z,5.00
2018-11-02T04:00:52.916Z,4.30
2018-11-02T04:01:52.943Z,3.80
2018-11-02T04:02:52.929Z,3.10
2018-11-02T04:03:52.941Z,5.00
2018-11-02T04:04:52.949Z,3.10
2018-11-02T04:05:52.854Z,2.80
2018-11-02T04:06:52.853Z,2.60
2018-11-02T04:07:52.860Z,3.50
2018-11-02T04:08:52.878Z,4.70
2018-11-02T04:09:52.773Z,3.80
2018-11-02T04:10:53.001Z,2.50
2018-11-02T04:11:52.792Z,3.10
2018-11-02T04:12:52.794Z,3.60
2018-11-02T04:13:52.814Z,2.10
2018-11-02T04:14:52.799Z,3.20
2018-11-02T04:15:53.162Z,3.00
2018-11-02T04:16:52.725Z,8.00
2018-11-02T04:17:52.762Z,3.10
2018-11-02T04:18:52.726Z,3.10
2018-11-02T04:19:52.758Z,2.20
2018-11-02T04:20:52.866Z,3.50
2018-11-02T04:21:52.748Z,2.30
2018-11-02T04:22:52.696Z,2.40
2018-11-02T04:23:52.658Z,3.70
2018-11-02T04:24:52.688Z,2.80
2018-11-02T04:25:52.881Z,3.20
2018-11-02T04:26:52.683Z,3.40
2018-11-02T04:27:52.696Z,2.30
2018-11-02T04:28:52.589Z,2.00
2018-11-02T04:29:52.596Z,2.20
2018-11-02T04:30:52.804Z,3.00
2018-11-02T04:31:52.601Z,1.90
2018-11-02T04:32:52.618Z,3.20
2018-11-02T04:33:52.634Z,2.60
2018-11-02T04:34:52.514Z,2.80
2018-11-02T04:35:52.640Z,3.00
2018-11-02T04:36:52.530Z,5.40
2018-11-02T04:37:52.552Z,2.50
2018-11-02T04:38:52.570Z,5.40
2018-11-02T04:39:52.571Z,3.40
2018-11-02T04:40:52.550Z,2.60
2018-11-02T04:41:52.478Z,3.60
2018-11-02T04:42:52.493Z,1.30
2018-11-02T04:43:52.507Z,1.80
2018-11-02T04:44:52.522Z,2.40
2018-11-02T04:45:52.498Z,2.40
2018-11-02T04:46:52.403Z,2.00
2018-11-02T04:47:52.401Z,2.90
2018-11-02T04:48:52.403Z,3.70
2018-11-02T04:49:52.409Z,1.50
2018-11-02T04:50:52.562Z,2.10
2018-11-02T04:51:52.443Z,3.60
2018-11-02T04:52:52.313Z,2.60
2018-11-02T04:53:53.363Z,3.50
2018-11-02T04:54:52.395Z,3.20
2018-11-02T04:55:52.444Z,1.70
2018-11-02T04:56:52.353Z,2.90
2018-11-02T04:57:52.415Z,2.70
2018-11-02T04:58:52.255Z,4.30
2018-11-02T04:59:52.266Z,2.10
2018-11-02T05:00:52.660Z,9.20
2018-11-02T05:01:52.281Z,2.20
2018-11-02T05:02:52.292Z,2.70
2018-11-02T05:03:52.281Z,2.50
2018-11-02T05:04:52.199Z,7.40
2018-11-02T05:05:52.330Z,3.40
2018-11-02T05:06:52.194Z,3.20
2018-11-02T05:07:52.213Z,2.10
2018-11-02T05:08:52.233Z,3.50
2018-11-02T05:09:52.280Z,3.20
2018-11-02T05:10:52.237Z,2.90
2018-11-02T05:11:52.140Z,1.40
2018-11-02T05:12:52.139Z,3.90
2018-11-02T05:13:52.148Z,1.10
2018-11-02T05:14:52.183Z,1.50
2018-11-02T05:15:52.158Z,1.50
2018-11-02T05:16:52.063Z,2.60
2018-11-02T05:17:52.074Z,1.40
2018-11-02T05:18:52.067Z,2.30
2018-11-02T05:19:52.074Z,2.30
2018-11-02T05:20:52.196Z,2.20
2018-11-02T05:21:52.099Z,3.00
2018-11-02T05:22:51.993Z,1.50
2018-11-02T05:23:52.002Z,1.80
2018-11-02T05:24:52.012Z,2.60
2018-11-02T05:25:52.142Z,1.30
2018-11-02T05:26:52.043Z,1.40
2018-11-02T05:27:51.969Z,2.10
2018-11-02T05:28:51.934Z,4.20
2018-11-02T05:29:51.963Z,1.80
2018-11-02T05:30:52.060Z,2.20
2018-11-02T05:31:51.951Z,2.30
2018-11-02T05:32:51.964Z,1.80
2018-11-02T05:33:51.864Z,4.40
2018-11-02T05:34:51.861Z,12.20
2018-11-02T05:35:51.976Z,4.80
2018-11-02T05:36:51.879Z,4.20
2018-11-02T05:37:51.901Z,7.10
2018-11-02T05:38:51.897Z,3.20
2018-11-02T05:39:51.895Z,5.70
2018-11-02T05:40:51.804Z,6.40
2018-11-02T05:41:51.905Z,7.40
2018-11-02T05:42:51.815Z,1.80
2018-11-02T05:43:51.819Z,5.00
2018-11-02T05:44:51.830Z,2.80
2018-11-02T05:45:51.749Z,6.70
2018-11-02T05:46:51.955Z,4.00
2018-11-02T05:47:51.740Z,7.90
2018-11-02T05:48:51.768Z,4.50
2018-11-02T05:49:51.760Z,4.50
2018-11-02T05:50:51.773Z,3.20
2018-11-02T05:51:51.767Z,2.10
2018-11-02T05:52:51.690Z,2.70
2018-11-02T05:53:51.684Z,3.00
2018-11-02T05:54:51.686Z,3.70
2018-11-02T05:55:51.708Z,3.80
2018-11-02T05:56:51.808Z,3.40
2018-11-02T05:57:51.604Z,3.50
2018-11-02T05:58:51.620Z,3.80
2018-11-02T05:59:51.627Z,3.70
2018-11-02T06:00:51.660Z,4.30
2018-11-02T06:01:51.954Z,3.40
2018-11-02T06:02:51.641Z,4.60
2018-11-02T06:03:51.653Z,3.90
2018-11-02T06:04:51.578Z,5.00
2018-11-02T06:05:51.555Z,3.80
2018-11-02T06:06:51.664Z,2.70
2018-11-02T06:07:51.621Z,4.30
2018-11-02T06:08:51.574Z,3.30
2018-11-02T06:09:51.593Z,3.00
2018-11-02T06:10:51.489Z,3.20
2018-11-02T06:13:19.884Z,2.90
2018-11-02T06:14:19.568Z,7.40
2018-11-02T06:15:19.503Z,2.30
2018-11-02T06:16:19.496Z,5.30
2018-11-02T06:17:19.605Z,6.70
2018-11-02T06:18:19.792Z,7.10
2018-11-02T06:19:19.401Z,12.40
2018-11-02T06:20:19.381Z,6.00
2018-11-02T06:21:19.422Z,8.70
2018-11-02T06:22:19.631Z,6.30
2018-11-02T06:23:20.461Z,10.60
2018-11-02T06:24:19.395Z,13.80
2018-11-02T06:25:19.313Z,14.80
2018-11-02T06:26:19.317Z,11.50
2018-11-02T06:27:19.482Z,10.00
2018-11-02T06:28:19.255Z,13.00
2018-11-02T06:29:19.239Z,9.60
2018-11-02T06:30:19.481Z,8.20
2018-11-02T06:31:19.251Z,11.80
2018-11-02T06:32:19.366Z,10.30
2018-11-02T06:33:19.281Z,7.90
2018-11-02T06:34:19.733Z,10.60
2018-11-02T06:37:20.320Z,19.30
2018-11-02T06:39:58.507Z,6.60
2018-11-02T06:42:13.786Z,27.10
2018-11-02T06:45:26.536Z,18.00
2018-11-02T06:46:26.196Z,25.70
2018-11-02T06:47:26.327Z,20.50
2018-11-02T06:48:27.950Z,17.10
2018-11-02T06:49:26.129Z,16.00
2018-11-02T06:50:26.124Z,18.90
2018-11-02T06:51:26.101Z,13.20
2018-11-02T06:52:27.015Z,20.40
2018-11-02T06:53:26.169Z,27.30
2018-11-02T06:54:26.202Z,11.70
2018-11-02T06:55:26.266Z,15.70
2018-11-02T06:56:34.272Z,20.60
2018-11-02T06:59:15.767Z,8.50
2018-11-02T07:00:15.601Z,15.80
2018-11-02T07:04:18.465Z,16.40
2018-11-02T07:05:25.601Z,9.40
2018-11-02T07:06:19.827Z,17.10
2018-11-02T07:07:18.263Z,23.90
2018-11-02T07:10:08.268Z,15.50
2018-11-02T07:11:08.174Z,52.50
2018-11-02T07:14:42.208Z,34.10
2018-11-02T07:24:54.572Z,32.40
2018-11-02T07:28:46.518Z,21.10
2018-11-02T07:29:45.894Z,36.40
2018-11-02T07:30:46.001Z,28.80
2018-11-02T07:31:46.063Z,27.70
2018-11-02T07:32:45.893Z,32.90
2018-11-02T07:33:45.854Z,27.50
2018-11-02T07:40:55.617Z,19.20
2018-11-02T07:41:55.457Z,23.10
2018-11-02T07:42:55.954Z,15.20
2018-11-02T07:45:44.642Z,17.90
2018-11-02T07:46:46.576Z,22.70
2018-11-02T07:47:44.687Z,17.90
2018-11-02T07:52:03.981Z,10.50
2018-11-02T07:54:35.886Z,16.90
2018-11-02T07:57:31.619Z,5.80
2018-11-02T07:58:31.508Z,14.70
2018-11-02T07:59:31.497Z,17.00
2018-11-02T08:00:31.557Z,18.10
2018-11-02T08:01:31.481Z,19.10
2018-11-02T08:02:31.525Z,11.90
2018-11-02T08:03:32.035Z,18.60
2018-11-02T08:04:31.946Z,17.00
2018-11-02T08:09:19.480Z,15.60
2018-11-02T08:11:35.844Z,14.00
2018-11-02T08:14:07.967Z,6.70
2018-11-02T08:15:08.202Z,10.70
2018-11-02T08:16:07.930Z,13.40
2018-11-02T08:38:24.805Z,8.30
2018-11-02T08:41:30.876Z,8.70
2018-11-02T08:43:41.938Z,4.80
2018-11-02T08:44:41.624Z,6.30
2018-11-02T08:45:41.654Z,10.80
2018-11-02T08:46:41.471Z,10.30
2018-11-02T08:47:41.768Z,9.60
2018-11-02T08:48:44.702Z,8.30
2018-11-02T08:49:44.042Z,14.80
2018-11-02T08:50:42.363Z,7.40
2018-11-02T08:51:41.454Z,13.60
2018-11-02T08:55:15.173Z,5.60
2018-11-02T08:56:15.100Z,8.60
2018-11-02T08:57:15.114Z,9.00
2018-11-02T08:58:15.211Z,4.90
2018-11-02T08:59:15.062Z,7.40
2018-11-02T09:00:14.963Z,8.60
2018-11-02T09:01:14.867Z,5.80
2018-11-02T09:02:14.834Z,7.50
2018-11-02T09:03:15.308Z,4.10
2018-11-02T09:04:14.914Z,8.90
2018-11-02T09:05:14.935Z,7.60
2018-11-02T09:06:14.792Z,7.50
2018-11-02T09:07:14.801Z,5.40
2018-11-02T09:08:14.778Z,5.60
2018-11-02T09:09:14.828Z,5.30
2018-11-02T09:10:14.846Z,7.40
2018-11-02T09:11:14.732Z,7.20
2018-11-02T09:12:14.857Z,3.80
2018-11-02T09:13:16.676Z,6.70
2018-11-02T09:14:14.726Z,8.20
2018-11-02T09:15:14.860Z,7.30
2018-11-02T09:16:14.783Z,7.70
2018-11-02T09:17:14.719Z,4.50
2018-11-02T09:18:14.666Z,3.60
2018-11-02T09:19:14.742Z,5.40
2018-11-02T09:23:00.629Z,10.60
2018-11-02T09:24:00.100Z,14.10
2018-11-02T09:25:00.639Z,13.50
2018-11-02T09:26:00.235Z,11.50
2018-11-02T09:26:59.941Z,19.60
2018-11-02T09:27:59.812Z,8.00
2018-11-02T09:29:00.351Z,11.90
2018-11-02T09:29:59.635Z,12.20
2018-11-02T09:30:59.832Z,4.60
2018-11-02T09:31:59.630Z,8.80
2018-11-02T09:32:59.536Z,6.50
2018-11-02T09:33:59.845Z,9.40
2018-11-02T09:34:59.539Z,8.50
2018-11-02T09:36:07.711Z,7.20
2018-11-02T09:38:16.554Z,6.40
2018-11-02T09:39:16.574Z,13.70
2018-11-02T09:40:16.565Z,11.60
2018-11-02T09:41:16.461Z,8.90
2018-11-02T09:42:17.569Z,9.30
2018-11-02T09:43:16.364Z,9.10
2018-11-02T09:44:16.389Z,5.60
2018-11-02T09:46:22.582Z,22.10
2018-11-02T10:12:24.720Z,13.40
2018-11-02T10:13:23.363Z,16.30
2018-11-02T10:14:23.698Z,8.80
2018-11-02T10:15:23.305Z,11.70
2018-11-02T10:16:23.181Z,13.30
2018-11-02T10:17:23.168Z,12.50
2018-11-02T10:18:23.161Z,9.30
2018-11-02T11:45:14.497Z,12.10
2018-11-02T12:44:39.151Z,31.70
2018-11-02T12:55:41.699Z,9.90
2018-11-02T13:43:10.115Z,18.10
2018-11-02T13:46:42.953Z,21.20
2018-11-02T14:07:30.046Z,6.20
2018-11-02T14:18:49.442Z,4.90
2018-11-02T14:19:49.226Z,9.60
2018-11-02T14:20:49.135Z,8.00
2018-11-02T15:02:21.374Z,8.60
2018-11-02T15:03:21.158Z,12.90
2018-11-02T15:04:21.192Z,13.30
2018-11-02T15:08:15.858Z,18.60
2018-11-02T15:09:15.551Z,12.90
2018-11-02T15:10:15.558Z,14.20
2018-11-02T15:11:15.490Z,19.20
2018-11-02T15:12:15.493Z,13.40
2018-11-02T15:13:15.576Z,10.60
2018-11-02T15:14:15.482Z,12.80
2018-11-02T15:15:15.504Z,10.40
2018-11-02T15:16:15.597Z,16.90
2018-11-02T15:17:15.399Z,11.60
2018-11-02T15:18:15.509Z,10.00
2018-11-02T15:19:15.418Z,10.80
2018-11-02T15:20:15.417Z,13.80
2018-11-02T15:21:15.439Z,9.90
2018-11-02T15:22:15.531Z,9.40
2018-11-02T15:23:15.543Z,19.20
2018-11-02T15:24:15.341Z,19.40
2018-11-02T15:25:15.348Z,16.90
2018-11-02T15:26:15.366Z,10.30
2018-11-02T15:27:15.361Z,8.30
2018-11-02T15:28:15.569Z,9.00
2018-11-02T15:29:15.284Z,13.10
2018-11-02T15:30:15.284Z,6.70
2018-11-02T15:31:15.284Z,4.00
2018-11-02T15:32:15.290Z,10.00
2018-11-02T15:33:15.395Z,9.40
2018-11-02T15:34:15.405Z,10.30
2018-11-02T15:35:15.414Z,8.80
2018-11-02T15:36:15.213Z,10.10
2018-11-02T15:37:15.230Z,14.10
2018-11-02T15:38:15.328Z,10.30
2018-11-02T15:39:15.231Z,12.90
2018-11-02T15:40:15.253Z,13.60
2018-11-02T15:41:15.142Z,13.00
2018-11-02T15:42:15.154Z,19.70
2018-11-02T15:43:15.257Z,26.10
2018-11-02T15:44:15.224Z,24.90
2018-11-02T15:45:16.128Z,29.10
2018-11-02T15:47:42.414Z,28.00
2018-11-02T15:48:42.631Z,25.70
2018-11-02T15:49:42.131Z,26.40
2018-11-02T15:50:42.136Z,31.20
2018-11-02T15:51:42.143Z,29.00
2018-11-02T15:52:42.152Z,35.40
2018-11-02T15:53:42.293Z,31.30
2018-11-02T15:54:42.168Z,27.00
2018-11-02T15:55:42.060Z,21.30
2018-11-02T15:56:42.072Z,28.00
2018-11-02T15:57:42.250Z,30.00
2018-11-02T15:58:42.699Z,20.70
2018-11-02T15:59:42.091Z,20.00
2018-11-02T16:00:42.384Z,33.30
2018-11-02T16:01:42.050Z,25.40
2018-11-02T16:02:42.030Z,21.30
2018-11-02T16:03:42.216Z,29.10
2018-11-02T16:04:42.215Z,22.70
2018-11-02T16:05:42.796Z,24.20
2018-11-02T16:06:42.146Z,19.20
2018-11-02T16:07:42.152Z,20.40
2018-11-02T16:08:42.049Z,24.60
2018-11-02T16:09:41.952Z,22.30
2018-11-02T16:10:42.388Z,23.50
2018-11-02T16:11:42.418Z,23.30
2018-11-02T16:12:41.971Z,23.30
2018-11-02T16:13:41.969Z,27.00
2018-11-02T16:14:41.887Z,21.10
2018-11-02T16:17:36.746Z,11.00
2018-11-02T16:18:45.189Z,23.40
2018-11-02T16:19:36.182Z,28.20
2018-11-02T16:20:36.209Z,15.20
2018-11-02T16:21:36.130Z,17.30
2018-11-02T16:22:36.125Z,27.40
2018-11-02T16:23:36.197Z,22.40
2018-11-02T16:24:36.105Z,17.70
2018-11-02T16:25:36.116Z,19.40
2018-11-02T16:26:36.020Z,17.00
2018-11-02T16:29:24.939Z,16.40
2018-11-02T16:30:24.696Z,15.00
2018-11-02T16:31:24.574Z,26.90
2018-11-02T16:32:24.601Z,18.40
2018-11-02T16:33:24.685Z,19.30
2018-11-02T16:34:24.587Z,18.90
2018-11-02T16:35:24.612Z,14.00
2018-11-02T16:36:24.604Z,15.30
2018-11-02T16:37:24.503Z,13.10
2018-11-02T16:38:24.612Z,15.60
2018-11-02T16:39:24.551Z,14.40
2018-11-02T16:41:45.897Z,10.20
2018-11-02T16:42:45.535Z,13.10
2018-11-02T16:43:45.853Z,17.20
2018-11-02T16:44:45.644Z,17.70
2018-11-02T16:45:46.008Z,11.90
2018-11-02T16:46:45.452Z,11.70
2018-11-02T16:47:45.516Z,11.00
2018-11-02T16:48:45.566Z,12.40
2018-11-02T16:49:45.519Z,10.60
2018-11-02T16:50:45.659Z,11.10
2018-11-02T16:51:45.384Z,17.10
2018-11-02T16:52:45.402Z,11.90
2018-11-02T16:53:45.496Z,10.10
2018-11-02T16:54:45.478Z,10.70
2018-11-02T16:55:45.409Z,9.90
2018-11-02T16:56:45.481Z,10.80
2018-11-02T16:57:45.598Z,14.00
2018-11-02T16:58:45.427Z,11.50
2018-11-02T16:59:45.333Z,8.30
2018-11-02T17:00:46.195Z,15.60
2018-11-02T17:01:45.362Z,10.80
2018-11-02T17:02:45.266Z,11.60
2018-11-02T17:03:46.468Z,9.90
2018-11-02T17:04:45.292Z,12.60
2018-11-02T17:05:45.311Z,9.50
2018-11-02T17:06:45.271Z,7.90
2018-11-02T17:07:45.276Z,7.00
2018-11-02T17:08:45.410Z,15.10
2018-11-02T17:09:46.313Z,8.90
2018-11-02T17:10:45.204Z,11.00
2018-11-02T17:11:45.396Z,10.80
2018-11-02T17:12:45.226Z,10.50
2018-11-02T17:13:45.212Z,9.00
2018-11-02T17:14:45.218Z,9.60
2018-11-02T17:15:45.135Z,13.20
2018-11-02T17:16:45.128Z,10.20
2018-11-02T17:17:45.245Z,9.50
2018-11-02T17:18:45.331Z,9.90
2018-11-02T17:19:45.279Z,11.70
2018-11-02T17:20:45.056Z,9.00
2018-11-02T17:21:45.109Z,8.00
2018-11-02T17:22:45.083Z,10.40
2018-11-02T17:23:45.199Z,10.40
2018-11-02T17:24:45.279Z,7.60
2018-11-02T17:25:45.084Z,8.60
2018-11-02T17:26:44.991Z,8.50
2018-11-02T17:27:45.068Z,9.30
2018-11-02T17:28:45.007Z,7.20
2018-11-02T17:29:45.111Z,6.30
2018-11-02T17:30:45.113Z,7.10
2018-11-02T17:31:45.173Z,8.90
2018-11-02T17:32:45.117Z,8.10
2018-11-02T17:33:44.984Z,10.00
2018-11-02T17:34:45.047Z,7.50
2018-11-02T17:35:44.957Z,9.50
2018-11-02T17:36:45.030Z,10.60
2018-11-02T17:37:44.960Z,6.70
2018-11-02T17:38:44.868Z,7.00
2018-11-02T17:39:44.979Z,8.60
2018-11-02T17:40:44.872Z,9.20
2018-11-02T17:41:45.288Z,7.70
2018-11-02T17:42:44.925Z,6.40
2018-11-02T17:43:44.961Z,7.30
2018-11-02T17:44:44.932Z,8.40
2018-11-02T17:45:44.809Z,9.90
2018-11-02T17:46:44.813Z,8.30
2018-11-02T17:47:45.046Z,6.80
2018-11-02T17:48:44.828Z,8.10
2018-11-02T17:49:44.957Z,7.00
2018-11-02T17:50:44.746Z,10.20
2018-11-02T17:51:44.756Z,7.50
2018-11-02T17:52:44.779Z,8.00
2018-11-02T17:53:44.934Z,9.00
2018-11-02T17:54:44.859Z,6.50
2018-11-02T17:55:44.768Z,6.60
2018-11-02T17:56:44.666Z,5.90
2018-11-02T17:57:44.809Z,5.70
2018-11-02T17:58:44.707Z,6.60
2018-11-02T17:59:44.869Z,6.10
2018-11-02T18:00:44.700Z,5.70
2018-11-02T18:01:44.737Z,6.40
2018-11-02T18:02:44.746Z,5.70
2018-11-02T18:03:44.645Z,7.70
2018-11-02T18:04:45.006Z,5.60
2018-11-02T18:05:44.684Z,6.90
2018-11-02T18:06:44.709Z,10.10
2018-11-02T18:07:44.660Z,8.10
2018-11-02T18:08:44.595Z,6.10
2018-11-02T18:09:44.672Z,9.90
2018-11-02T18:10:44.930Z,8.00
2018-11-02T18:13:39.930Z,3.40
2018-11-02T18:14:38.941Z,6.90
2018-11-02T18:19:29.191Z,3.10
2018-11-02T18:20:29.194Z,8.20
2018-11-02T18:28:25.799Z,4.10
2018-11-02T18:29:25.599Z,4.90
2018-11-02T18:30:25.532Z,5.50
2018-11-02T18:31:25.456Z,3.90
2018-11-02T18:32:25.346Z,4.20
2018-11-02T18:33:25.370Z,4.50
2018-11-02T18:34:25.366Z,4.80
2018-11-02T18:35:25.567Z,3.30
2018-11-02T18:36:25.377Z,7.90
2018-11-02T18:37:25.404Z,4.90
2018-11-02T18:38:25.291Z,5.00
2018-11-02T18:39:25.294Z,4.70
2018-11-02T18:40:25.401Z,5.50
2018-11-02T18:41:25.312Z,9.00
2018-11-02T18:42:25.371Z,4.20
2018-11-02T18:43:25.470Z,6.30
2018-11-02T18:44:25.216Z,4.20
2018-11-02T18:45:25.335Z,4.00
2018-11-02T18:46:25.225Z,5.30
2018-11-02T18:47:25.256Z,3.30
2018-11-02T18:48:25.426Z,5.80
2018-11-02T18:49:25.242Z,7.20
2018-11-02T18:50:25.258Z,4.90
2018-11-02T18:51:25.153Z,4.00
2018-11-02T18:52:25.157Z,4.80
2018-11-02T18:53:25.163Z,5.30
2018-11-02T18:54:25.170Z,4.90
2018-11-02T18:55:25.274Z,4.40
2018-11-02T18:56:25.291Z,3.20
2018-11-02T18:57:25.088Z,5.60
2018-11-02T18:58:25.088Z,3.30
2018-11-02T18:59:25.100Z,4.50
2018-11-02T19:00:25.205Z,6.10
2018-11-02T19:01:25.106Z,4.70
2018-11-02T19:02:25.018Z,4.80
2018-11-02T19:03:25.023Z,5.70
2018-11-02T19:04:25.094Z,5.20
2018-11-02T19:05:25.187Z,3.80
2018-11-02T19:06:25.048Z,3.70
2018-11-02T19:07:25.049Z,7.00
2018-11-02T19:08:24.951Z,4.70
2018-11-02T19:09:24.952Z,7.40
2018-11-02T19:10:25.060Z,9.60
2018-11-02T19:11:24.964Z,32.30
2018-11-02T19:12:24.977Z,8.20
2018-11-02T19:13:25.081Z,8.50
2018-11-02T19:14:24.890Z,8.70
2018-11-02T19:15:24.993Z,11.10
2018-11-02T19:16:24.906Z,9.30
2018-11-02T19:17:24.906Z,6.00
2018-11-02T19:18:24.919Z,8.60
2018-11-02T19:19:24.919Z,5.40
2018-11-02T19:20:25.014Z,7.10
2018-11-02T19:21:24.903Z,7.20
2018-11-02T19:22:24.930Z,7.30
2018-11-02T19:23:24.841Z,4.70
2018-11-02T19:24:24.851Z,8.90
2018-11-02T19:25:24.851Z,9.10
2018-11-02T19:26:24.753Z,9.10
2018-11-02T19:27:24.774Z,8.30
2018-11-02T19:28:24.989Z,8.20
2018-11-02T19:29:25.607Z,5.90
2018-11-02T19:30:24.985Z,6.50
2018-11-02T19:31:24.701Z,6.40
2018-11-02T19:32:24.804Z,6.60
2018-11-02T19:33:24.704Z,7.00
2018-11-02T19:34:24.852Z,5.00
2018-11-02T19:35:24.929Z,9.30
2018-11-02T19:36:25.497Z,5.90
2018-11-02T19:37:24.740Z,5.40
2018-11-02T19:38:24.740Z,5.90
2018-11-02T19:39:24.636Z,6.70
2018-11-02T19:40:24.637Z,11.60
2018-11-02T19:41:24.915Z,9.60
2018-11-02T19:42:24.653Z,3.40
2018-11-02T19:43:24.663Z,9.10
2018-11-02T19:44:24.586Z,5.80
2018-11-02T19:45:24.567Z,6.00
2018-11-02T19:46:24.674Z,7.40
2018-11-02T19:47:24.577Z,5.60
2018-11-02T19:48:24.588Z,5.10
2018-11-02T19:49:24.596Z,4.00
2018-11-02T19:50:24.533Z,5.00
2018-11-02T19:51:24.638Z,5.60
2018-11-02T19:52:24.544Z,8.60
2018-11-02T19:53:24.544Z,4.60
2018-11-02T19:54:24.846Z,6.60
2018-11-02T19:55:24.693Z,6.10
2018-11-02T19:56:24.549Z,6.70
2018-11-02T19:57:24.662Z,7.00